createdAt,value
2019-05-06T00:00:25.650Z,3.60
2019-05-06T00:02:54.731Z,3.50
2019-05-06T00:05:25.458Z,2.90
2019-05-06T00:07:54.736Z,4.03
2019-05-06T00:10:34.135Z,3.50
2019-05-06T00:13:04.596Z,3.50
2019-05-06T00:15:34.377Z,4.17
2019-05-06T00:18:04.459Z,3.53
2019-05-06T00:20:34.760Z,3.57
2019-05-06T00:23:05.550Z,4.60
2019-05-06T00:25:53.554Z,3.50
2019-05-06T00:28:24.433Z,4.07
2019-05-06T00:31:09.468Z,3.53
2019-05-06T00:33:28.184Z,3.57
2019-05-06T00:35:56.917Z,4.70
2019-05-06T00:38:25.707Z,5.07
2019-05-06T00:41:14.340Z,4.00
2019-05-06T00:43:43.714Z,4.33
2019-05-06T00:46:13.850Z,4.43
2019-05-06T00:48:44.802Z,4.00
2019-05-06T00:51:13.595Z,3.10
2019-05-06T00:53:43.907Z,3.70
2019-05-06T00:56:14.000Z,3.80
2019-05-06T00:58:43.689Z,3.47
2019-05-06T01:01:24.033Z,4.67
2019-05-06T01:03:44.250Z,3.60
2019-05-06T01:06:14.286Z,4.57
2019-05-06T01:08:44.042Z,4.13
2019-05-06T01:11:14.408Z,4.47
2019-05-06T01:13:47.969Z,4.50
2019-05-06T01:16:18.253Z,4.50
2019-05-06T01:18:46.979Z,4.77
2019-05-06T01:21:15.864Z,3.80
2019-05-06T01:23:45.698Z,4.10
2019-05-06T01:26:16.726Z,4.27
2019-05-06T01:28:45.858Z,3.93
2019-05-06T01:31:14.880Z,5.13
2019-05-06T01:33:45.253Z,5.57
2019-05-06T01:36:14.389Z,3.73
2019-05-06T01:38:47.637Z,4.10
2019-05-06T01:41:20.951Z,3.73
2019-05-06T01:43:49.666Z,4.50
2019-05-06T01:46:18.390Z,4.20
2019-05-06T01:48:49.780Z,4.47
2019-05-06T01:51:20.510Z,4.63
2019-05-06T01:53:49.626Z,4.20
2019-05-06T01:56:18.915Z,4.27
2019-05-06T01:58:47.835Z,4.40
2019-05-06T02:01:16.668Z,4.97
2019-05-06T02:03:45.619Z,5.00
2019-05-06T02:06:14.343Z,4.20
2019-05-06T02:08:44.711Z,4.73
2019-05-06T02:11:14.897Z,4.63
2019-05-06T02:13:44.407Z,5.13
2019-05-06T02:16:14.757Z,4.43
2019-05-06T02:18:44.911Z,5.40
2019-05-06T02:21:18.161Z,6.47
2019-05-06T02:23:53.429Z,7.70
2019-05-06T02:26:23.787Z,8.03
2019-05-06T02:28:56.786Z,7.60
2019-05-06T02:31:45.978Z,7.37
2019-05-06T02:34:18.440Z,6.07
2019-05-06T02:36:48.729Z,6.73
2019-05-06T02:39:17.447Z,5.70
2019-05-06T02:41:46.343Z,5.70
2019-05-06T02:44:15.087Z,6.20
2019-05-06T02:46:45.364Z,5.77
2019-05-06T02:49:18.918Z,6.30
2019-05-06T02:51:47.632Z,5.53
2019-05-06T02:54:16.356Z,5.37
2019-05-06T02:56:45.226Z,6.13
2019-05-06T02:59:13.967Z,5.63
2019-05-06T03:01:43.397Z,12.10
2019-05-06T03:04:13.185Z,24.80
2019-05-06T03:06:44.680Z,10.37
2019-05-06T03:09:13.427Z,5.97
2019-05-06T03:11:43.782Z,4.20
2019-05-06T03:14:13.896Z,4.30
2019-05-06T03:16:43.993Z,4.50
2019-05-06T03:19:13.564Z,4.50
2019-05-06T03:21:44.840Z,3.27
2019-05-06T03:24:19.548Z,3.87
2019-05-06T03:26:56.128Z,3.87
2019-05-06T03:29:20.292Z,3.80
2019-05-06T03:31:49.056Z,3.97
2019-05-06T03:34:38.467Z,4.03
2019-05-06T03:36:49.179Z,4.27
2019-05-06T03:39:18.203Z,5.40
2019-05-06T03:41:46.923Z,4.17
2019-05-06T03:44:16.702Z,4.60
2019-05-06T03:47:05.715Z,4.20
2019-05-06T03:49:42.635Z,4.60
2019-05-06T03:52:13.639Z,5.20
2019-05-06T03:54:45.316Z,5.13
2019-05-06T03:57:14.725Z,5.00
2019-05-06T03:59:44.859Z,4.77
2019-05-06T04:02:13.683Z,3.93
2019-05-06T04:04:44.008Z,4.57
2019-05-06T04:07:14.077Z,4.80
2019-05-06T04:09:44.210Z,4.53
2019-05-06T04:12:14.184Z,5.53
2019-05-06T04:14:43.412Z,3.73
2019-05-06T04:17:14.312Z,3.87
2019-05-06T04:19:45.002Z,4.60
2019-05-06T04:22:18.530Z,4.60
2019-05-06T04:24:55.109Z,5.00
2019-05-06T04:27:33.582Z,5.00
2019-05-06T04:30:04.734Z,4.60
2019-05-06T04:32:34.107Z,4.93
2019-05-06T04:35:04.444Z,3.80
2019-05-06T04:37:34.088Z,3.83
2019-05-06T04:40:04.486Z,4.83
2019-05-06T04:42:34.485Z,4.27
2019-05-06T04:45:04.571Z,3.77
2019-05-06T04:47:33.795Z,4.50
2019-05-06T04:50:04.828Z,4.13
2019-05-06T04:52:34.157Z,3.73
2019-05-06T04:55:03.849Z,4.10
2019-05-06T04:57:33.570Z,4.03
2019-05-06T05:00:04.172Z,4.07
2019-05-06T05:02:33.775Z,3.77
2019-05-06T05:05:04.236Z,3.50
2019-05-06T05:07:33.622Z,4.60
2019-05-06T05:10:04.036Z,5.43
2019-05-06T05:12:34.380Z,5.93
2019-05-06T05:15:11.846Z,5.77
2019-05-06T05:17:45.327Z,5.40
2019-05-06T05:20:14.145Z,4.90
2019-05-06T05:22:42.870Z,5.10
2019-05-06T05:25:12.613Z,4.97
2019-05-06T05:27:42.173Z,4.77
2019-05-06T05:30:12.499Z,5.07
2019-05-06T05:32:42.851Z,5.00
2019-05-06T05:35:14.584Z,4.30
2019-05-06T05:37:43.313Z,4.77
2019-05-06T05:40:13.078Z,4.60
2019-05-06T05:42:43.525Z,4.27
2019-05-06T05:45:12.920Z,4.50
2019-05-06T05:47:42.542Z,5.03
2019-05-06T05:50:16.091Z,4.40
2019-05-06T05:52:45.148Z,4.37
2019-05-06T05:55:14.083Z,4.23
2019-05-06T05:57:43.296Z,4.50
2019-05-06T06:00:12.891Z,3.57
2019-05-06T06:02:43.761Z,4.20
2019-05-06T06:05:12.685Z,6.83
2019-05-06T06:07:42.226Z,4.87
2019-05-06T06:10:25.783Z,5.57
2019-05-06T06:12:55.303Z,4.53
2019-05-06T06:15:32.934Z,4.57
2019-05-06T06:18:15.716Z,4.70
2019-05-06T06:20:46.383Z,4.50
2019-05-06T06:23:16.669Z,5.00
2019-05-06T06:25:45.407Z,4.50
2019-05-06T06:28:14.295Z,4.43
2019-05-06T06:31:00.091Z,6.27
2019-05-06T06:33:28.871Z,5.50
2019-05-06T06:36:05.167Z,5.23
2019-05-06T06:38:47.714Z,4.63
2019-05-06T06:41:16.833Z,4.43
2019-05-06T06:43:47.323Z,5.70
2019-05-06T06:46:17.086Z,4.50
2019-05-06T06:48:45.808Z,3.90
2019-05-06T06:51:14.534Z,4.83
2019-05-06T06:53:43.392Z,4.30
2019-05-06T06:56:29.789Z,4.17
2019-05-06T06:59:07.762Z,4.13
2019-05-06T07:01:54.291Z,4.57
2019-05-06T07:04:32.429Z,4.57
2019-05-06T07:07:03.226Z,3.60
2019-05-06T07:09:32.348Z,7.60
2019-05-06T07:12:03.485Z,4.20
2019-05-06T07:14:32.639Z,5.07
2019-05-06T07:17:02.515Z,4.00
2019-05-06T07:19:32.937Z,4.53
2019-05-06T07:22:02.912Z,3.73
2019-05-06T07:24:32.464Z,3.20
2019-05-06T07:27:08.936Z,3.83
2019-05-06T07:29:37.655Z,3.60
2019-05-06T07:32:06.380Z,3.80
2019-05-06T07:34:35.265Z,3.70
2019-05-06T07:37:04.089Z,4.43
2019-05-06T07:39:33.435Z,3.67
2019-05-06T07:42:04.031Z,4.13
2019-05-06T07:44:37.620Z,3.90
2019-05-06T07:47:15.777Z,3.80
2019-05-06T07:49:44.694Z,3.83
2019-05-06T07:52:13.419Z,4.00
2019-05-06T07:54:43.093Z,3.83
2019-05-06T07:57:12.769Z,3.97
2019-05-06T07:59:42.872Z,3.50
2019-05-06T08:02:13.114Z,3.70
2019-05-06T08:04:42.210Z,3.53
2019-05-06T08:07:12.596Z,3.47
2019-05-06T08:09:42.333Z,3.33
2019-05-06T08:12:12.360Z,2.90
2019-05-06T08:14:42.988Z,2.80
2019-05-06T08:17:15.066Z,2.43
2019-05-06T08:19:46.911Z,3.37
2019-05-06T08:22:34.795Z,2.80
2019-05-06T08:25:03.648Z,2.20
2019-05-06T08:27:32.948Z,2.63
2019-05-06T08:30:02.630Z,2.73
2019-05-06T08:32:32.166Z,2.80
2019-05-06T08:35:03.394Z,2.60
2019-05-06T08:37:36.132Z,6.10
2019-05-06T08:40:07.647Z,2.53
2019-05-06T08:42:36.447Z,2.37
2019-05-06T08:45:07.160Z,2.20
2019-05-06T08:47:36.194Z,2.40
2019-05-06T08:50:08.388Z,2.37
2019-05-06T08:52:54.855Z,2.50
2019-05-06T08:55:32.589Z,2.20
2019-05-06T08:58:03.132Z,3.40
2019-05-06T09:00:32.679Z,1.90
2019-05-06T09:03:04.014Z,2.00
2019-05-06T09:05:33.078Z,1.80
2019-05-06T09:08:03.678Z,1.77
2019-05-06T09:10:32.604Z,2.27
2019-05-06T09:13:01.976Z,2.10
2019-05-06T09:15:32.701Z,1.97
2019-05-06T09:18:03.001Z,2.00
2019-05-06T09:20:33.621Z,2.33
2019-05-06T09:23:04.523Z,1.80
2019-05-06T09:25:33.139Z,2.27
2019-05-06T09:28:03.589Z,2.20
2019-05-06T09:30:47.009Z,1.50
2019-05-06T09:33:17.550Z,1.63
2019-05-06T09:35:46.272Z,1.47
2019-05-06T09:38:14.988Z,1.47
2019-05-06T09:40:43.801Z,1.60
2019-05-06T09:43:13.270Z,1.67
2019-05-06T09:45:42.620Z,1.93
2019-05-06T09:48:33.048Z,1.90
2019-05-06T09:51:02.900Z,1.70
2019-05-06T09:53:39.417Z,2.13
2019-05-06T09:56:23.050Z,1.67
2019-05-06T09:58:52.934Z,1.90
2019-05-06T10:01:22.490Z,1.80
2019-05-06T10:03:52.928Z,1.73
2019-05-06T10:06:22.286Z,2.03
2019-05-06T10:08:51.165Z,1.90
2019-05-06T10:11:19.898Z,1.83
2019-05-06T10:13:48.688Z,2.00
2019-05-06T10:16:17.432Z,1.47
2019-05-06T10:18:46.164Z,1.60
2019-05-06T10:21:15.533Z,1.80
2019-05-06T10:23:44.270Z,1.20
2019-05-06T10:26:13.090Z,2.10
2019-05-06T10:28:46.653Z,1.40
2019-05-06T10:31:17.037Z,1.63
2019-05-06T10:34:03.829Z,2.27
2019-05-06T10:36:37.282Z,1.30
2019-05-06T10:39:12.677Z,1.60
2019-05-06T10:41:44.386Z,1.33
2019-05-06T10:44:38.680Z,1.40
2019-05-06T10:47:07.435Z,1.73
2019-05-06T10:49:36.159Z,1.30
2019-05-06T10:52:15.410Z,1.57
2019-05-06T10:54:44.151Z,1.70
2019-05-06T10:57:15.378Z,1.90
2019-05-06T10:59:44.182Z,1.63
2019-05-06T11:02:32.257Z,2.20
2019-05-06T11:05:02.775Z,2.37
2019-05-06T11:07:34.973Z,1.93
2019-05-06T11:10:02.613Z,2.43
2019-05-06T11:12:32.589Z,1.97
2019-05-06T11:15:03.427Z,1.77
2019-05-06T11:17:32.656Z,1.83
2019-05-06T11:20:06.202Z,1.70
2019-05-06T11:22:32.757Z,2.87
2019-05-06T11:25:03.121Z,2.10
2019-05-06T11:27:34.037Z,1.57
2019-05-06T11:30:04.294Z,1.60
2019-05-06T11:32:34.589Z,1.60
2019-05-06T11:35:12.320Z,1.60
2019-05-06T11:37:50.521Z,1.70
2019-05-06T11:40:18.123Z,2.00
2019-05-06T11:42:46.840Z,1.83
2019-05-06T11:45:15.955Z,1.57
2019-05-06T11:47:44.752Z,1.80
2019-05-06T11:50:13.923Z,1.90
2019-05-06T11:52:43.409Z,2.03
2019-05-06T11:55:27.060Z,1.40
2019-05-06T11:57:45.254Z,2.20
2019-05-06T12:00:16.247Z,2.20
2019-05-06T12:02:48.656Z,1.73
2019-05-06T12:05:15.778Z,2.33
2019-05-06T12:08:00.480Z,1.60
2019-05-06T12:10:15.228Z,1.80
2019-05-06T12:12:43.954Z,2.10
2019-05-06T12:15:12.873Z,1.80
2019-05-06T12:17:42.258Z,1.63
2019-05-06T12:20:13.119Z,1.97
2019-05-06T12:22:42.376Z,1.80
2019-05-06T12:25:15.424Z,1.53
2019-05-06T12:27:46.263Z,1.20
2019-05-06T12:30:22.996Z,1.47
2019-05-06T12:32:56.367Z,1.57
2019-05-06T12:35:25.090Z,2.37
2019-05-06T12:37:55.453Z,1.90
2019-05-06T12:40:24.173Z,1.67
2019-05-06T12:42:54.486Z,2.50
2019-05-06T12:45:24.934Z,2.00
2019-05-06T12:47:55.228Z,2.50
2019-05-06T12:50:23.944Z,2.07
2019-05-06T12:52:52.933Z,2.43
2019-05-06T12:55:25.193Z,2.37
2019-05-06T12:57:53.729Z,2.67
2019-05-06T13:00:23.611Z,2.67
2019-05-06T13:02:53.217Z,3.33
2019-05-06T13:05:23.532Z,3.47
2019-05-06T13:07:58.342Z,5.00
2019-05-06T13:10:27.105Z,4.20
2019-05-06T13:12:57.434Z,6.00
2019-05-06T13:15:26.248Z,4.90
2019-05-06T13:17:54.983Z,4.33
2019-05-06T13:20:23.774Z,4.80
2019-05-06T13:23:07.410Z,4.60
2019-05-06T13:25:32.807Z,4.73
2019-05-06T13:28:01.753Z,4.43
2019-05-06T13:30:32.639Z,4.00
2019-05-06T13:33:09.540Z,3.80
2019-05-06T13:35:38.451Z,3.20
2019-05-06T13:38:07.258Z,2.93
2019-05-06T13:40:52.800Z,2.70
2019-05-06T13:43:13.115Z,2.90
2019-05-06T13:45:59.650Z,3.83
2019-05-06T13:48:32.430Z,3.30
2019-05-06T13:51:08.191Z,3.03
2019-05-06T13:53:39.665Z,3.20
2019-05-06T13:56:07.989Z,3.00
2019-05-06T13:58:39.722Z,3.00
2019-05-06T14:01:10.102Z,3.00
2019-05-06T14:03:38.844Z,3.13
2019-05-06T14:06:07.567Z,2.93
2019-05-06T14:08:36.414Z,2.97
2019-05-06T14:11:05.124Z,3.03
2019-05-06T14:13:33.846Z,3.77
2019-05-06T14:16:03.924Z,3.23
2019-05-06T14:18:33.709Z,3.40
2019-05-06T14:21:03.388Z,3.37
2019-05-06T14:23:36.726Z,2.60
2019-05-06T14:26:12.401Z,2.30
2019-05-06T14:28:42.954Z,2.53
2019-05-06T14:31:19.547Z,3.23
2019-05-06T14:33:48.411Z,3.40
2019-05-06T14:36:17.131Z,2.97
2019-05-06T14:38:47.328Z,3.07
2019-05-06T14:41:26.102Z,3.20
2019-05-06T14:43:51.243Z,2.90
2019-05-06T14:46:22.437Z,2.40
2019-05-06T14:48:53.264Z,2.20
2019-05-06T14:51:22.292Z,2.20
2019-05-06T14:53:52.943Z,2.23
2019-05-06T14:56:29.302Z,2.30
2019-05-06T14:59:04.987Z,2.00
2019-05-06T15:01:35.030Z,2.30
2019-05-06T15:04:04.636Z,1.97
2019-05-06T15:06:33.356Z,1.43
2019-05-06T15:09:03.792Z,1.73
2019-05-06T15:11:32.637Z,2.10
2019-05-06T15:14:03.512Z,2.03
2019-05-06T15:16:33.719Z,4.07
2019-05-06T15:19:03.970Z,2.83
2019-05-06T15:21:37.886Z,2.53
2019-05-06T15:24:03.877Z,3.10
2019-05-06T15:26:33.371Z,3.67
2019-05-06T15:29:03.384Z,2.50
2019-05-06T15:31:35.878Z,3.00
2019-05-06T15:34:06.306Z,2.30
2019-05-06T15:36:49.087Z,2.27
2019-05-06T15:39:20.590Z,2.40
2019-05-06T15:41:49.314Z,1.87
2019-05-06T15:44:19.309Z,3.87
2019-05-06T15:46:48.033Z,2.73
2019-05-06T15:49:16.757Z,2.07
2019-05-06T15:51:45.555Z,2.43
2019-05-06T15:54:14.275Z,1.10
2019-05-06T15:56:43.011Z,1.43
2019-05-06T15:59:12.189Z,1.00
2019-05-06T16:01:43.153Z,0.90
2019-05-06T16:04:12.229Z,1.00
2019-05-06T16:06:44.464Z,1.50
2019-05-06T16:09:14.225Z,0.80
2019-05-06T16:11:44.622Z,0.63
2019-05-06T16:14:12.701Z,0.87
2019-05-06T16:16:42.973Z,0.90
2019-05-06T16:19:14.562Z,0.67
2019-05-06T16:21:45.283Z,1.50
2019-05-06T16:24:18.449Z,1.30
2019-05-06T16:26:47.162Z,1.43
2019-05-06T16:29:15.953Z,2.33
2019-05-06T16:31:44.695Z,2.37
2019-05-06T16:34:14.624Z,1.30
2019-05-06T16:36:44.531Z,1.60
2019-05-06T16:39:13.221Z,0.90
2019-05-06T16:41:42.257Z,1.10
2019-05-06T16:44:12.884Z,1.33
2019-05-06T16:46:42.634Z,1.40
2019-05-06T16:49:14.023Z,1.17
2019-05-06T16:51:44.081Z,0.80
2019-05-06T16:54:12.580Z,0.80
2019-05-06T16:56:45.712Z,0.67
2019-05-06T16:59:14.563Z,1.07
2019-05-06T17:01:44.985Z,0.80
2019-05-06T17:04:24.473Z,0.90
2019-05-06T17:06:53.589Z,1.10
2019-05-06T17:09:27.511Z,0.90
2019-05-06T17:11:54.663Z,0.90
2019-05-06T17:14:23.384Z,1.03
2019-05-06T17:16:52.724Z,1.20
2019-05-06T17:19:23.000Z,1.60
2019-05-06T17:21:52.476Z,1.40
2019-05-06T17:24:21.987Z,1.30
2019-05-06T17:26:55.679Z,1.60
2019-05-06T17:29:42.822Z,1.37
2019-05-06T17:32:16.301Z,1.37
2019-05-06T17:34:52.831Z,1.40
2019-05-06T17:37:41.973Z,1.57
2019-05-06T17:40:14.009Z,1.50
2019-05-06T17:42:42.766Z,1.73
2019-05-06T17:45:32.215Z,2.13
2019-05-06T17:48:20.545Z,2.10
2019-05-06T17:51:07.051Z,2.00
2019-05-06T17:53:35.787Z,1.57
2019-05-06T17:56:05.204Z,1.67
2019-05-06T17:58:34.070Z,1.60
2019-05-06T18:01:03.376Z,1.83
2019-05-06T18:03:32.730Z,2.07
2019-05-06T18:06:07.058Z,1.90
2019-05-06T18:08:33.469Z,2.20
2019-05-06T18:11:02.316Z,2.20
2019-05-06T18:13:31.126Z,1.90
2019-05-06T18:15:59.869Z,2.20
2019-05-06T18:18:29.076Z,2.10
2019-05-06T18:20:58.026Z,2.07
2019-05-06T18:23:26.784Z,2.57
2019-05-06T18:25:55.572Z,2.40
2019-05-06T18:28:24.422Z,2.40
2019-05-06T18:30:53.162Z,2.40
2019-05-06T18:33:22.559Z,3.60
2019-05-06T18:35:53.522Z,3.67
2019-05-06T18:38:21.942Z,3.27
2019-05-06T18:40:52.850Z,3.43
2019-05-06T18:43:22.909Z,3.27
2019-05-06T18:45:52.183Z,2.50
2019-05-06T18:48:21.829Z,2.10
2019-05-06T18:50:51.958Z,2.33
2019-05-06T18:53:22.625Z,2.20
2019-05-06T18:55:51.428Z,2.33
2019-05-06T18:58:22.378Z,3.60
2019-05-06T19:00:53.029Z,2.87
2019-05-06T19:03:22.538Z,1.80
2019-05-06T19:05:52.982Z,1.50
2019-05-06T19:08:38.809Z,1.30
2019-05-06T19:11:09.261Z,1.40
2019-05-06T19:13:37.982Z,2.03
2019-05-06T19:16:06.708Z,1.80
2019-05-06T19:18:35.459Z,1.57
2019-05-06T19:21:04.365Z,1.50
2019-05-06T19:23:33.084Z,1.33
2019-05-06T19:26:02.852Z,1.80
2019-05-06T19:28:32.473Z,1.83
2019-05-06T19:31:03.112Z,1.43
2019-05-06T19:33:34.720Z,1.40
2019-05-06T19:36:03.212Z,1.50
2019-05-06T19:38:33.562Z,1.33
2019-05-06T19:41:05.830Z,1.50
2019-05-06T19:43:34.180Z,2.13
2019-05-06T19:46:02.925Z,2.07
2019-05-06T19:48:32.784Z,2.10
2019-05-06T19:51:03.096Z,1.57
2019-05-06T19:53:32.367Z,1.60
2019-05-06T19:56:02.794Z,1.60
2019-05-06T19:58:33.843Z,1.60
2019-05-06T20:01:02.492Z,1.50
2019-05-06T20:03:32.717Z,1.80
2019-05-06T20:06:10.397Z,1.57
2019-05-06T20:08:48.268Z,1.60
2019-05-06T20:11:19.739Z,1.60
2019-05-06T20:13:48.472Z,2.03
2019-05-06T20:16:19.926Z,2.10
2019-05-06T20:18:47.796Z,2.10
2019-05-06T20:21:16.532Z,2.20
2019-05-06T20:23:47.003Z,2.53
2019-05-06T20:26:15.728Z,2.30
2019-05-06T20:28:47.160Z,2.40
2019-05-06T20:31:16.051Z,2.90
2019-05-06T20:33:44.771Z,2.77
2019-05-06T20:36:13.506Z,3.20
2019-05-06T20:38:43.417Z,3.00
2019-05-06T20:41:12.690Z,3.33
2019-05-06T20:43:42.346Z,3.13
2019-05-06T20:46:13.062Z,3.50
2019-05-06T20:48:42.218Z,2.87
2019-05-06T20:51:12.294Z,2.80
2019-05-06T20:53:43.199Z,2.53
2019-05-06T20:56:12.496Z,3.23
2019-05-06T20:58:42.005Z,2.90
2019-05-06T21:01:12.011Z,2.67
2019-05-06T21:03:42.371Z,2.40
2019-05-06T21:06:13.281Z,2.47
2019-05-06T21:08:42.889Z,2.37
2019-05-06T21:11:24.956Z,2.30
2019-05-06T21:13:43.269Z,2.87
2019-05-06T21:16:12.999Z,2.30
2019-05-06T21:18:42.054Z,2.60
2019-05-06T21:21:10.745Z,2.80
2019-05-06T21:23:42.772Z,2.83
2019-05-06T21:26:13.522Z,2.70
2019-05-06T21:28:42.576Z,2.93
2019-05-06T21:31:12.594Z,3.30
2019-05-06T21:33:42.561Z,3.07
2019-05-06T21:36:12.368Z,3.30
2019-05-06T21:38:42.693Z,2.80
2019-05-06T21:41:12.361Z,2.93
2019-05-06T21:43:47.186Z,2.80
2019-05-06T21:46:12.971Z,4.33
2019-05-06T21:48:42.121Z,3.07
2019-05-06T21:51:12.720Z,4.70
2019-05-06T21:53:41.480Z,10.80
2019-05-06T21:56:10.204Z,8.07
2019-05-06T21:58:42.644Z,7.97
2019-05-06T22:01:11.283Z,2.73
2019-05-06T22:03:40.004Z,9.83
2019-05-06T22:06:08.737Z,13.10
2019-05-06T22:08:37.507Z,7.20
2019-05-06T22:11:06.324Z,3.43
2019-05-06T22:13:35.080Z,3.90
2019-05-06T22:16:04.830Z,5.40
2019-05-06T22:18:33.846Z,3.93
2019-05-06T22:21:11.327Z,9.63
2019-05-06T22:23:47.867Z,11.00
2019-05-06T22:26:16.635Z,9.07
2019-05-06T22:28:45.355Z,3.50
2019-05-06T22:31:14.169Z,4.63
2019-05-06T22:33:43.001Z,3.33
2019-05-06T22:36:13.159Z,5.87
2019-05-06T22:38:44.161Z,4.77
2019-05-06T22:41:12.709Z,5.00
2019-05-06T22:43:42.411Z,5.10
2019-05-06T22:46:12.338Z,3.50
2019-05-06T22:48:43.314Z,3.00
2019-05-06T22:51:12.365Z,2.57
2019-05-06T22:53:42.504Z,2.50
2019-05-06T22:56:13.419Z,2.50
2019-05-06T22:58:42.792Z,2.50
2019-05-06T23:01:29.822Z,2.83
2019-05-06T23:03:58.739Z,2.50
2019-05-06T23:06:27.461Z,3.00
2019-05-06T23:08:56.350Z,3.80
2019-05-06T23:11:25.072Z,2.90
2019-05-06T23:13:53.786Z,2.83
2019-05-06T23:16:22.714Z,3.57
2019-05-06T23:18:52.461Z,3.50
2019-05-06T23:21:23.216Z,3.50
2019-05-06T23:23:54.400Z,3.97
2019-05-06T23:26:23.736Z,3.80
2019-05-06T23:28:52.712Z,4.37
2019-05-06T23:31:24.327Z,4.47
2019-05-06T23:33:53.357Z,4.50
2019-05-06T23:36:22.908Z,4.80
2019-05-06T23:39:27.953Z,5.20
2019-05-06T23:42:32.705Z,5.33
2019-05-06T23:45:38.727Z,6.13
2019-05-06T23:48:43.761Z,5.47
2019-05-06T23:51:48.819Z,6.27
2019-05-06T23:54:53.730Z,5.87
2019-05-06T23:57:22.505Z,6.53
2019-05-06T23:59:54.671Z,7.13
